sensor_id;sensor_type;location;lat;lon;timestamp;temperature;humidity
16076;DHT22;8142;48.242;11.644;2024-03-29T00:01:17;5.60;99.90
16076;DHT22;8142;48.242;11.644;2024-03-29T00:03:43;5.60;99.90
16076;DHT22;8142;48.242;11.644;2024-03-29T00:06:10;5.60;99.90
16076;DHT22;8142;48.242;11.644;2024-03-29T00:08:37;5.60;99.90
16076;DHT22;8142;48.242;11.644;2024-03-29T00:11:03;5.70;99.90
16076;DHT22;8142;48.242;11.644;2024-03-29T00:13:29;5.70;99.90
16076;DHT22;8142;48.242;11.644;2024-03-29T00:15:55;5.60;99.90
16076;DHT22;8142;48.242;11.644;2024-03-29T00:18:21;5.70;99.90
16076;DHT22;8142;48.242;11.644;2024-03-29T00:20:47;5.70;99.90
16076;DHT22;8142;48.242;11.644;2024-03-29T00:23:13;5.70;99.90
16076;DHT22;8142;48.242;11.644;2024-03-29T00:25:39;5.70;99.90
16076;DHT22;8142;48.242;11.644;2024-03-29T00:28:06;5.70;99.90
16076;DHT22;8142;48.242;11.644;2024-03-29T00:30:32;5.70;99.90
16076;DHT22;8142;48.242;11.644;2024-03-29T00:32:58;5.70;99.90
16076;DHT22;8142;48.242;11.644;2024-03-29T00:35:24;5.70;99.90
16076;DHT22;8142;48.242;11.644;2024-03-29T00:37:50;5.70;99.90
16076;DHT22;8142;48.242;11.644;2024-03-29T00:40:16;5.70;99.90
16076;DHT22;8142;48.242;11.644;2024-03-29T00:42:42;5.90;99.90
16076;DHT22;8142;48.242;11.644;2024-03-29T00:45:08;5.70;99.90
16076;DHT22;8142;48.242;11.644;2024-03-29T00:47:34;5.80;99.90
16076;DHT22;8142;48.242;11.644;2024-03-29T00:50:00;5.70;99.90
16076;DHT22;8142;48.242;11.644;2024-03-29T00:52:26;5.70;99.90
16076;DHT22;8142;48.242;11.644;2024-03-29T00:54:52;5.70;99.90
16076;DHT22;8142;48.242;11.644;2024-03-29T00:57:18;5.80;99.90
16076;DHT22;8142;48.242;11.644;2024-03-29T00:59:44;5.80;99.90
16076;DHT22;8142;48.242;11.644;2024-03-29T01:02:10;5.80;99.90
16076;DHT22;8142;48.242;11.644;2024-03-29T01:04:36;5.80;99.90
16076;DHT22;8142;48.242;11.644;2024-03-29T01:07:03;5.80;99.90
16076;DHT22;8142;48.242;11.644;2024-03-29T01:09:29;5.80;99.90
16076;DHT22;8142;48.242;11.644;2024-03-29T01:11:55;5.80;99.90
16076;DHT22;8142;48.242;11.644;2024-03-29T01:14:21;5.80;99.90
16076;DHT22;8142;48.242;11.644;2024-03-29T01:16:47;5.80;99.90
16076;DHT22;8142;48.242;11.644;2024-03-29T01:19:13;5.80;99.90
16076;DHT22;8142;48.242;11.644;2024-03-29T01:21:39;5.80;99.90
16076;DHT22;8142;48.242;11.644;2024-03-29T01:24:05;5.80;99.90
16076;DHT22;8142;48.242;11.644;2024-03-29T01:26:31;5.80;99.90
16076;DHT22;8142;48.242;11.644;2024-03-29T01:28:57;5.70;99.90
16076;DHT22;8142;48.242;11.644;2024-03-29T01:31:23;5.70;99.90
16076;DHT22;8142;48.242;11.644;2024-03-29T01:33:50;5.70;99.90
16076;DHT22;8142;48.242;11.644;2024-03-29T01:36:16;5.70;99.90
16076;DHT22;8142;48.242;11.644;2024-03-29T01:38:42;5.70;99.90
16076;DHT22;8142;48.242;11.644;2024-03-29T01:41:11;5.70;99.90
16076;DHT22;8142;48.242;11.644;2024-03-29T01:43:38;5.70;99.90
16076;DHT22;8142;48.242;11.644;2024-03-29T01:46:05;5.60;99.90
16076;DHT22;8142;48.242;11.644;2024-03-29T01:48:34;5.60;99.90
16076;DHT22;8142;48.242;11.644;2024-03-29T01:51:00;5.40;99.90
16076;DHT22;8142;48.242;11.644;2024-03-29T01:53:27;5.30;99.90
16076;DHT22;8142;48.242;11.644;2024-03-29T01:55:54;5.10;99.90
16076;DHT22;8142;48.242;11.644;2024-03-29T01:58:20;4.90;99.90
16076;DHT22;8142;48.242;11.644;2024-03-29T02:00:58;4.70;99.90
16076;DHT22;8142;48.242;11.644;2024-03-29T02:03:25;4.50;99.90
16076;DHT22;8142;48.242;11.644;2024-03-29T02:05:53;4.30;99.90
16076;DHT22;8142;48.242;11.644;2024-03-29T02:08:21;4.20;99.90
16076;DHT22;8142;48.242;11.644;2024-03-29T02:10:47;4.00;99.90
16076;DHT22;8142;48.242;11.644;2024-03-29T02:13:14;4.00;99.90
16076;DHT22;8142;48.242;11.644;2024-03-29T02:15:40;3.80;99.90
16076;DHT22;8142;48.242;11.644;2024-03-29T02:18:09;3.80;99.90
16076;DHT22;8142;48.242;11.644;2024-03-29T02:20:36;3.70;99.90
16076;DHT22;8142;48.242;11.644;2024-03-29T02:23:11;3.70;99.90
16076;DHT22;8142;48.242;11.644;2024-03-29T02:25:37;3.70;99.90
16076;DHT22;8142;48.242;11.644;2024-03-29T02:28:04;3.70;99.90
16076;DHT22;8142;48.242;11.644;2024-03-29T02:30:30;3.70;99.90
16076;DHT22;8142;48.242;11.644;2024-03-29T02:32:59;3.70;99.90
16076;DHT22;8142;48.242;11.644;2024-03-29T02:35:26;3.70;99.90
16076;DHT22;8142;48.242;11.644;2024-03-29T02:37:52;3.70;99.90
16076;DHT22;8142;48.242;11.644;2024-03-29T02:40:19;3.70;99.90
16076;DHT22;8142;48.242;11.644;2024-03-29T02:42:47;3.80;99.90
16076;DHT22;8142;48.242;11.644;2024-03-29T02:45:13;3.80;99.90
16076;DHT22;8142;48.242;11.644;2024-03-29T02:47:39;3.80;99.90
16076;DHT22;8142;48.242;11.644;2024-03-29T02:50:06;3.80;99.90
16076;DHT22;8142;48.242;11.644;2024-03-29T02:52:32;3.80;99.90
16076;DHT22;8142;48.242;11.644;2024-03-29T02:54:58;3.90;99.90
16076;DHT22;8142;48.242;11.644;2024-03-29T02:57:24;3.90;99.90
16076;DHT22;8142;48.242;11.644;2024-03-29T02:59:50;3.90;99.90
16076;DHT22;8142;48.242;11.644;2024-03-29T03:02:16;3.90;99.90
16076;DHT22;8142;48.242;11.644;2024-03-29T03:04:42;3.90;99.90
16076;DHT22;8142;48.242;11.644;2024-03-29T03:07:07;4.00;99.90
16076;DHT22;8142;48.242;11.644;2024-03-29T03:09:52;4.00;99.90
16076;DHT22;8142;48.242;11.644;2024-03-29T03:12:36;4.00;99.90
16076;DHT22;8142;48.242;11.644;2024-03-29T03:15:03;4.10;99.90
16076;DHT22;8142;48.242;11.644;2024-03-29T03:17:31;4.10;99.90
16076;DHT22;8142;48.242;11.644;2024-03-29T03:19:57;4.20;99.90
16076;DHT22;8142;48.242;11.644;2024-03-29T03:22:24;4.20;99.90
16076;DHT22;8142;48.242;11.644;2024-03-29T03:24:49;4.20;99.90
16076;DHT22;8142;48.242;11.644;2024-03-29T03:27:15;4.30;99.90
16076;DHT22;8142;48.242;11.644;2024-03-29T03:29:41;4.40;99.90
16076;DHT22;8142;48.242;11.644;2024-03-29T03:32:07;4.40;99.90
16076;DHT22;8142;48.242;11.644;2024-03-29T03:34:33;4.50;99.90
16076;DHT22;8142;48.242;11.644;2024-03-29T03:36:59;4.60;99.90
16076;DHT22;8142;48.242;11.644;2024-03-29T03:39:25;4.70;99.90
16076;DHT22;8142;48.242;11.644;2024-03-29T03:41:51;4.80;99.90
16076;DHT22;8142;48.242;11.644;2024-03-29T03:44:18;4.80;99.90
16076;DHT22;8142;48.242;11.644;2024-03-29T03:46:43;4.90;99.90
16076;DHT22;8142;48.242;11.644;2024-03-29T03:49:09;4.90;99.90
16076;DHT22;8142;48.242;11.644;2024-03-29T03:51:35;5.00;99.90
16076;DHT22;8142;48.242;11.644;2024-03-29T03:54:01;5.00;99.90
16076;DHT22;8142;48.242;11.644;2024-03-29T03:56:27;5.10;99.90
16076;DHT22;8142;48.242;11.644;2024-03-29T03:58:53;5.10;99.90
16076;DHT22;8142;48.242;11.644;2024-03-29T04:01:19;5.20;99.90
16076;DHT22;8142;48.242;11.644;2024-03-29T04:03:44;5.20;99.90
16076;DHT22;8142;48.242;11.644;2024-03-29T04:06:10;5.30;99.90
16076;DHT22;8142;48.242;11.644;2024-03-29T04:08:36;5.30;99.90
16076;DHT22;8142;48.242;11.644;2024-03-29T04:11:05;5.30;99.90
16076;DHT22;8142;48.242;11.644;2024-03-29T04:13:31;5.30;99.90
16076;DHT22;8142;48.242;11.644;2024-03-29T04:16:03;5.40;99.90
16076;DHT22;8142;48.242;11.644;2024-03-29T04:18:30;5.40;99.90
16076;DHT22;8142;48.242;11.644;2024-03-29T04:21:03;5.40;99.90
16076;DHT22;8142;48.242;11.644;2024-03-29T04:23:29;5.50;99.90
16076;DHT22;8142;48.242;11.644;2024-03-29T04:25:59;5.50;99.90
16076;DHT22;8142;48.242;11.644;2024-03-29T04:28:26;5.50;99.90
16076;DHT22;8142;48.242;11.644;2024-03-29T04:33:18;5.50;99.90
16076;DHT22;8142;48.242;11.644;2024-03-29T04:36:10;5.50;99.90
16076;DHT22;8142;48.242;11.644;2024-03-29T04:38:36;5.50;99.90
16076;DHT22;8142;48.242;11.644;2024-03-29T04:41:02;5.50;99.90
16076;DHT22;8142;48.242;11.644;2024-03-29T04:43:29;5.50;99.90
16076;DHT22;8142;48.242;11.644;2024-03-29T04:46:06;5.50;99.90
16076;DHT22;8142;48.242;11.644;2024-03-29T04:48:39;5.60;99.90
16076;DHT22;8142;48.242;11.644;2024-03-29T04:51:05;5.60;99.90
16076;DHT22;8142;48.242;11.644;2024-03-29T04:53:31;5.60;99.90
16076;DHT22;8142;48.242;11.644;2024-03-29T04:55:58;5.60;99.90
16076;DHT22;8142;48.242;11.644;2024-03-29T04:58:27;5.60;99.90
16076;DHT22;8142;48.242;11.644;2024-03-29T05:00:54;5.70;99.90
16076;DHT22;8142;48.242;11.644;2024-03-29T05:03:21;5.60;99.90
16076;DHT22;8142;48.242;11.644;2024-03-29T05:05:49;5.70;99.90
16076;DHT22;8142;48.242;11.644;2024-03-29T05:08:15;5.70;99.90
16076;DHT22;8142;48.242;11.644;2024-03-29T05:10:41;5.70;99.90
16076;DHT22;8142;48.242;11.644;2024-03-29T05:13:07;5.70;99.90
16076;DHT22;8142;48.242;11.644;2024-03-29T05:15:33;5.70;99.90
16076;DHT22;8142;48.242;11.644;2024-03-29T05:17:59;5.70;99.90
16076;DHT22;8142;48.242;11.644;2024-03-29T05:20:25;5.70;99.90
16076;DHT22;8142;48.242;11.644;2024-03-29T05:22:51;5.70;99.90
16076;DHT22;8142;48.242;11.644;2024-03-29T05:25:17;5.70;99.90
16076;DHT22;8142;48.242;11.644;2024-03-29T05:27:43;5.80;99.90
16076;DHT22;8142;48.242;11.644;2024-03-29T05:30:09;5.80;99.90
16076;DHT22;8142;48.242;11.644;2024-03-29T05:32:39;5.80;99.90
16076;DHT22;8142;48.242;11.644;2024-03-29T05:35:05;5.90;99.90
16076;DHT22;8142;48.242;11.644;2024-03-29T05:37:31;5.90;99.90
16076;DHT22;8142;48.242;11.644;2024-03-29T05:39:57;5.90;99.90
16076;DHT22;8142;48.242;11.644;2024-03-29T05:42:27;6.00;99.90
16076;DHT22;8142;48.242;11.644;2024-03-29T05:44:53;6.00;99.90
16076;DHT22;8142;48.242;11.644;2024-03-29T05:47:19;6.10;99.90
16076;DHT22;8142;48.242;11.644;2024-03-29T05:49:46;6.10;99.90
16076;DHT22;8142;48.242;11.644;2024-03-29T05:52:12;6.20;99.90
16076;DHT22;8142;48.242;11.644;2024-03-29T05:54:42;6.30;99.90
16076;DHT22;8142;48.242;11.644;2024-03-29T05:57:08;6.30;99.90
16076;DHT22;8142;48.242;11.644;2024-03-29T05:59:34;6.30;99.90
16076;DHT22;8142;48.242;11.644;2024-03-29T06:02:01;6.40;99.90
16076;DHT22;8142;48.242;11.644;2024-03-29T06:04:27;6.50;99.90
16076;DHT22;8142;48.242;11.644;2024-03-29T06:07:01;6.40;99.90
16076;DHT22;8142;48.242;11.644;2024-03-29T06:09:28;6.50;99.90
16076;DHT22;8142;48.242;11.644;2024-03-29T06:11:55;6.50;99.90
16076;DHT22;8142;48.242;11.644;2024-03-29T06:14:22;6.60;99.90
16076;DHT22;8142;48.242;11.644;2024-03-29T06:17:07;6.60;99.90
16076;DHT22;8142;48.242;11.644;2024-03-29T06:19:48;6.70;99.90
16076;DHT22;8142;48.242;11.644;2024-03-29T06:22:19;6.70;99.90
16076;DHT22;8142;48.242;11.644;2024-03-29T06:24:45;6.80;99.90
16076;DHT22;8142;48.242;11.644;2024-03-29T06:27:13;6.90;99.90
16076;DHT22;8142;48.242;11.644;2024-03-29T06:29:43;6.90;99.90
16076;DHT22;8142;48.242;11.644;2024-03-29T06:32:09;7.00;99.90
16076;DHT22;8142;48.242;11.644;2024-03-29T06:34:36;7.10;99.90
16076;DHT22;8142;48.242;11.644;2024-03-29T06:37:02;7.20;99.90
16076;DHT22;8142;48.242;11.644;2024-03-29T06:39:28;7.30;99.90
16076;DHT22;8142;48.242;11.644;2024-03-29T06:41:54;7.40;99.90
16076;DHT22;8142;48.242;11.644;2024-03-29T06:44:20;7.40;99.90
16076;DHT22;8142;48.242;11.644;2024-03-29T06:46:46;7.50;99.90
16076;DHT22;8142;48.242;11.644;2024-03-29T06:49:12;7.50;99.90
16076;DHT22;8142;48.242;11.644;2024-03-29T06:51:39;7.60;99.90
16076;DHT22;8142;48.242;11.644;2024-03-29T06:54:06;7.70;99.90
16076;DHT22;8142;48.242;11.644;2024-03-29T06:56:32;7.80;99.90
16076;DHT22;8142;48.242;11.644;2024-03-29T06:58:59;7.90;99.90
16076;DHT22;8142;48.242;11.644;2024-03-29T07:01:25;8.00;99.90
16076;DHT22;8142;48.242;11.644;2024-03-29T07:03:51;8.10;99.90
16076;DHT22;8142;48.242;11.644;2024-03-29T07:06:17;8.20;99.90
16076;DHT22;8142;48.242;11.644;2024-03-29T07:08:43;8.30;99.90
16076;DHT22;8142;48.242;11.644;2024-03-29T07:11:08;8.40;99.90
16076;DHT22;8142;48.242;11.644;2024-03-29T07:13:35;8.50;99.90
16076;DHT22;8142;48.242;11.644;2024-03-29T07:16:01;8.50;99.90
16076;DHT22;8142;48.242;11.644;2024-03-29T07:18:28;8.70;99.90
16076;DHT22;8142;48.242;11.644;2024-03-29T07:20:54;8.80;99.90
16076;DHT22;8142;48.242;11.644;2024-03-29T07:23:20;9.00;99.90
16076;DHT22;8142;48.242;11.644;2024-03-29T07:26:01;9.10;99.90
16076;DHT22;8142;48.242;11.644;2024-03-29T07:28:28;9.20;99.90
16076;DHT22;8142;48.242;11.644;2024-03-29T07:30:54;9.30;99.90
16076;DHT22;8142;48.242;11.644;2024-03-29T07:33:21;9.40;99.90
16076;DHT22;8142;48.242;11.644;2024-03-29T07:35:49;9.50;99.90
16076;DHT22;8142;48.242;11.644;2024-03-29T07:38:15;9.70;99.90
16076;DHT22;8142;48.242;11.644;2024-03-29T07:40:43;9.80;99.90
16076;DHT22;8142;48.242;11.644;2024-03-29T07:43:09;10.00;99.90
16076;DHT22;8142;48.242;11.644;2024-03-29T07:45:35;10.20;99.90
16076;DHT22;8142;48.242;11.644;2024-03-29T07:48:01;10.30;99.90
16076;DHT22;8142;48.242;11.644;2024-03-29T07:50:27;10.50;99.90
16076;DHT22;8142;48.242;11.644;2024-03-29T07:52:53;10.60;99.90
16076;DHT22;8142;48.242;11.644;2024-03-29T07:55:19;10.80;99.90
16076;DHT22;8142;48.242;11.644;2024-03-29T07:57:45;10.90;99.90
16076;DHT22;8142;48.242;11.644;2024-03-29T08:00:12;11.10;99.90
16076;DHT22;8142;48.242;11.644;2024-03-29T08:02:38;11.20;99.90
16076;DHT22;8142;48.242;11.644;2024-03-29T08:05:06;11.40;99.90
16076;DHT22;8142;48.242;11.644;2024-03-29T08:07:32;11.60;99.90
16076;DHT22;8142;48.242;11.644;2024-03-29T08:09:58;11.70;99.90
16076;DHT22;8142;48.242;11.644;2024-03-29T08:12:24;12.00;99.90
16076;DHT22;8142;48.242;11.644;2024-03-29T08:14:50;12.30;99.90
16076;DHT22;8142;48.242;11.644;2024-03-29T08:17:16;12.40;99.90
16076;DHT22;8142;48.242;11.644;2024-03-29T08:19:42;12.60;99.90
16076;DHT22;8142;48.242;11.644;2024-03-29T08:22:08;12.90;99.90
16076;DHT22;8142;48.242;11.644;2024-03-29T08:24:39;13.10;99.90
16076;DHT22;8142;48.242;11.644;2024-03-29T08:27:05;13.30;99.90
16076;DHT22;8142;48.242;11.644;2024-03-29T08:29:31;13.40;99.90
16076;DHT22;8142;48.242;11.644;2024-03-29T08:31:57;13.50;99.90
16076;DHT22;8142;48.242;11.644;2024-03-29T08:34:23;13.60;99.90
16076;DHT22;8142;48.242;11.644;2024-03-29T08:36:50;13.50;99.90
16076;DHT22;8142;48.242;11.644;2024-03-29T08:39:16;13.60;99.90
16076;DHT22;8142;48.242;11.644;2024-03-29T08:41:42;13.50;99.90
16076;DHT22;8142;48.242;11.644;2024-03-29T08:44:11;13.40;99.90
16076;DHT22;8142;48.242;11.644;2024-03-29T08:46:37;13.30;99.90
16076;DHT22;8142;48.242;11.644;2024-03-29T08:49:03;13.30;99.90
16076;DHT22;8142;48.242;11.644;2024-03-29T08:51:28;13.20;99.90
16076;DHT22;8142;48.242;11.644;2024-03-29T08:53:55;13.20;99.90
16076;DHT22;8142;48.242;11.644;2024-03-29T08:56:23;13.10;99.90
16076;DHT22;8142;48.242;11.644;2024-03-29T08:58:49;13.20;99.90
16076;DHT22;8142;48.242;11.644;2024-03-29T09:01:15;13.20;99.90
16076;DHT22;8142;48.242;11.644;2024-03-29T09:03:41;13.30;99.90
16076;DHT22;8142;48.242;11.644;2024-03-29T09:06:07;13.20;99.90
16076;DHT22;8142;48.242;11.644;2024-03-29T09:08:33;13.20;99.90
16076;DHT22;8142;48.242;11.644;2024-03-29T09:10:59;13.20;99.90
16076;DHT22;8142;48.242;11.644;2024-03-29T09:13:26;13.20;99.90
16076;DHT22;8142;48.242;11.644;2024-03-29T09:15:52;13.10;99.90
16076;DHT22;8142;48.242;11.644;2024-03-29T09:18:18;13.10;99.90
16076;DHT22;8142;48.242;11.644;2024-03-29T09:20:57;13.10;99.90
16076;DHT22;8142;48.242;11.644;2024-03-29T09:23:23;13.10;99.90
16076;DHT22;8142;48.242;11.644;2024-03-29T09:25:51;13.10;99.90
16076;DHT22;8142;48.242;11.644;2024-03-29T09:28:17;13.20;99.90
16076;DHT22;8142;48.242;11.644;2024-03-29T09:30:43;13.10;99.90
16076;DHT22;8142;48.242;11.644;2024-03-29T09:33:09;13.10;99.90
16076;DHT22;8142;48.242;11.644;2024-03-29T09:35:39;13.20;99.90
16076;DHT22;8142;48.242;11.644;2024-03-29T09:38:05;13.20;99.90
16076;DHT22;8142;48.242;11.644;2024-03-29T09:40:31;13.30;99.90
16076;DHT22;8142;48.242;11.644;2024-03-29T09:43:00;13.30;99.90
16076;DHT22;8142;48.242;11.644;2024-03-29T09:45:34;13.40;99.90
16076;DHT22;8142;48.242;11.644;2024-03-29T09:48:04;13.40;99.90
16076;DHT22;8142;48.242;11.644;2024-03-29T09:50:31;13.50;99.90
16076;DHT22;8142;48.242;11.644;2024-03-29T09:52:58;13.60;99.90
16076;DHT22;8142;48.242;11.644;2024-03-29T09:55:24;13.60;99.90
16076;DHT22;8142;48.242;11.644;2024-03-29T09:57:51;13.70;99.90
16076;DHT22;8142;48.242;11.644;2024-03-29T10:00:18;13.70;99.90
16076;DHT22;8142;48.242;11.644;2024-03-29T10:02:44;13.80;99.90
16076;DHT22;8142;48.242;11.644;2024-03-29T10:05:12;13.90;99.90
16076;DHT22;8142;48.242;11.644;2024-03-29T10:07:39;13.90;99.90
16076;DHT22;8142;48.242;11.644;2024-03-29T10:10:06;14.00;99.90
16076;DHT22;8142;48.242;11.644;2024-03-29T10:12:32;14.00;99.90
16076;DHT22;8142;48.242;11.644;2024-03-29T10:14:58;14.10;99.90
16076;DHT22;8142;48.242;11.644;2024-03-29T10:17:50;14.10;99.90
16076;DHT22;8142;48.242;11.644;2024-03-29T10:20:16;14.20;99.90
16076;DHT22;8142;48.242;11.644;2024-03-29T10:22:44;14.20;99.90
16076;DHT22;8142;48.242;11.644;2024-03-29T10:25:12;14.30;99.90
16076;DHT22;8142;48.242;11.644;2024-03-29T10:27:38;14.30;99.90
16076;DHT22;8142;48.242;11.644;2024-03-29T10:30:06;14.30;99.90
16076;DHT22;8142;48.242;11.644;2024-03-29T10:32:37;14.40;99.90
16076;DHT22;8142;48.242;11.644;2024-03-29T10:35:04;14.40;99.90
16076;DHT22;8142;48.242;11.644;2024-03-29T10:37:31;14.50;99.90
16076;DHT22;8142;48.242;11.644;2024-03-29T10:40:01;14.40;99.90
16076;DHT22;8142;48.242;11.644;2024-03-29T10:42:31;14.40;99.90
16076;DHT22;8142;48.242;11.644;2024-03-29T10:44:59;14.40;99.90
16076;DHT22;8142;48.242;11.644;2024-03-29T10:47:26;14.30;99.90
16076;DHT22;8142;48.242;11.644;2024-03-29T10:49:53;14.20;99.90
16076;DHT22;8142;48.242;11.644;2024-03-29T10:52:24;14.00;99.90
16076;DHT22;8142;48.242;11.644;2024-03-29T10:54:52;14.10;99.90
16076;DHT22;8142;48.242;11.644;2024-03-29T10:57:25;14.20;99.90
16076;DHT22;8142;48.242;11.644;2024-03-29T11:00:25;14.20;99.90
16076;DHT22;8142;48.242;11.644;2024-03-29T11:05:33;14.40;99.90
16076;DHT22;8142;48.242;11.644;2024-03-29T11:08:01;14.50;99.90
16076;DHT22;8142;48.242;11.644;2024-03-29T11:10:31;14.60;99.90
16076;DHT22;8142;48.242;11.644;2024-03-29T11:15:29;14.80;99.90
16076;DHT22;8142;48.242;11.644;2024-03-29T11:17:56;14.90;99.90
16076;DHT22;8142;48.242;11.644;2024-03-29T11:20:24;15.00;99.90
16076;DHT22;8142;48.242;11.644;2024-03-29T11:23:04;15.10;99.90
16076;DHT22;8142;48.242;11.644;2024-03-29T11:25:43;15.20;99.90
16076;DHT22;8142;48.242;11.644;2024-03-29T11:28:12;15.30;99.90
16076;DHT22;8142;48.242;11.644;2024-03-29T11:30:40;15.40;99.90
16076;DHT22;8142;48.242;11.644;2024-03-29T11:33:07;15.50;99.90
16076;DHT22;8142;48.242;11.644;2024-03-29T11:35:33;15.60;99.90
16076;DHT22;8142;48.242;11.644;2024-03-29T11:37:59;15.70;99.90
16076;DHT22;8142;48.242;11.644;2024-03-29T11:40:30;15.80;99.90
16076;DHT22;8142;48.242;11.644;2024-03-29T11:42:56;15.90;99.90
16076;DHT22;8142;48.242;11.644;2024-03-29T11:45:25;15.90;99.90
16076;DHT22;8142;48.242;11.644;2024-03-29T11:47:59;16.00;99.90
16076;DHT22;8142;48.242;11.644;2024-03-29T11:50:27;16.00;99.90
16076;DHT22;8142;48.242;11.644;2024-03-29T11:52:53;16.00;99.90
16076;DHT22;8142;48.242;11.644;2024-03-29T11:55:19;16.10;99.90
16076;DHT22;8142;48.242;11.644;2024-03-29T11:57:45;16.10;99.90
16076;DHT22;8142;48.242;11.644;2024-03-29T12:00:11;16.20;99.90
16076;DHT22;8142;48.242;11.644;2024-03-29T12:02:39;16.20;99.90
16076;DHT22;8142;48.242;11.644;2024-03-29T12:05:08;16.30;99.90
16076;DHT22;8142;48.242;11.644;2024-03-29T12:07:35;16.20;99.90
16076;DHT22;8142;48.242;11.644;2024-03-29T12:10:01;16.20;99.90
16076;DHT22;8142;48.242;11.644;2024-03-29T12:12:27;16.30;99.90
16076;DHT22;8142;48.242;11.644;2024-03-29T12:14:55;16.30;99.90
16076;DHT22;8142;48.242;11.644;2024-03-29T12:17:20;16.30;99.90
16076;DHT22;8142;48.242;11.644;2024-03-29T12:19:46;16.30;99.90
16076;DHT22;8142;48.242;11.644;2024-03-29T12:22:14;16.30;99.90
16076;DHT22;8142;48.242;11.644;2024-03-29T12:24:40;16.30;99.90
16076;DHT22;8142;48.242;11.644;2024-03-29T12:27:06;16.30;99.90
16076;DHT22;8142;48.242;11.644;2024-03-29T12:29:31;16.40;99.90
16076;DHT22;8142;48.242;11.644;2024-03-29T12:32:00;16.50;99.90
16076;DHT22;8142;48.242;11.644;2024-03-29T12:34:27;16.50;99.90
16076;DHT22;8142;48.242;11.644;2024-03-29T12:36:52;16.60;99.90
16076;DHT22;8142;48.242;11.644;2024-03-29T12:39:18;16.60;99.90
16076;DHT22;8142;48.242;11.644;2024-03-29T12:41:48;16.80;99.90
16076;DHT22;8142;48.242;11.644;2024-03-29T12:44:14;16.80;99.90
16076;DHT22;8142;48.242;11.644;2024-03-29T12:46:40;16.90;99.90
16076;DHT22;8142;48.242;11.644;2024-03-29T12:49:06;16.90;99.90
16076;DHT22;8142;48.242;11.644;2024-03-29T12:51:32;17.00;99.90
16076;DHT22;8142;48.242;11.644;2024-03-29T12:54:05;17.00;99.90
16076;DHT22;8142;48.242;11.644;2024-03-29T12:56:31;17.00;99.90
16076;DHT22;8142;48.242;11.644;2024-03-29T12:58:57;17.10;99.90
16076;DHT22;8142;48.242;11.644;2024-03-29T13:01:23;17.00;99.90
16076;DHT22;8142;48.242;11.644;2024-03-29T13:03:49;17.00;99.90
16076;DHT22;8142;48.242;11.644;2024-03-29T13:06:15;17.00;99.90
16076;DHT22;8142;48.242;11.644;2024-03-29T13:08:41;17.00;99.90
16076;DHT22;8142;48.242;11.644;2024-03-29T13:11:07;17.00;99.90
16076;DHT22;8142;48.242;11.644;2024-03-29T13:13:33;17.00;99.90
16076;DHT22;8142;48.242;11.644;2024-03-29T13:15:59;17.00;99.90
16076;DHT22;8142;48.242;11.644;2024-03-29T13:18:25;17.10;99.90
16076;DHT22;8142;48.242;11.644;2024-03-29T13:20:51;17.30;99.90
16076;DHT22;8142;48.242;11.644;2024-03-29T13:23:17;17.30;99.90
16076;DHT22;8142;48.242;11.644;2024-03-29T13:25:43;17.50;99.90
16076;DHT22;8142;48.242;11.644;2024-03-29T13:28:09;17.60;99.90
16076;DHT22;8142;48.242;11.644;2024-03-29T13:30:36;17.70;99.90
16076;DHT22;8142;48.242;11.644;2024-03-29T13:33:08;17.80;99.90
16076;DHT22;8142;48.242;11.644;2024-03-29T13:35:37;17.90;99.90
16076;DHT22;8142;48.242;11.644;2024-03-29T13:38:03;17.90;99.90
16076;DHT22;8142;48.242;11.644;2024-03-29T13:40:29;18.00;99.90
16076;DHT22;8142;48.242;11.644;2024-03-29T13:42:56;18.00;99.90
16076;DHT22;8142;48.242;11.644;2024-03-29T13:45:23;18.10;99.90
16076;DHT22;8142;48.242;11.644;2024-03-29T13:47:51;18.10;99.90
16076;DHT22;8142;48.242;11.644;2024-03-29T13:50:17;18.20;99.90
16076;DHT22;8142;48.242;11.644;2024-03-29T13:52:43;18.20;99.90
16076;DHT22;8142;48.242;11.644;2024-03-29T13:55:10;18.20;99.90
16076;DHT22;8142;48.242;11.644;2024-03-29T13:57:36;18.30;99.90
16076;DHT22;8142;48.242;11.644;2024-03-29T14:00:04;18.20;99.90
16076;DHT22;8142;48.242;11.644;2024-03-29T14:02:32;18.30;99.60
16076;DHT22;8142;48.242;11.644;2024-03-29T14:04:57;18.30;99.50
16076;DHT22;8142;48.242;11.644;2024-03-29T14:07:24;18.40;99.90
16076;DHT22;8142;48.242;11.644;2024-03-29T14:09:53;18.40;97.90
16076;DHT22;8142;48.242;11.644;2024-03-29T14:12:20;18.50;98.30
16076;DHT22;8142;48.242;11.644;2024-03-29T14:14:51;18.50;98.40
16076;DHT22;8142;48.242;11.644;2024-03-29T14:17:18;18.60;97.90
16076;DHT22;8142;48.242;11.644;2024-03-29T14:19:44;18.60;98.40
16076;DHT22;8142;48.242;11.644;2024-03-29T14:22:11;18.60;99.40
16076;DHT22;8142;48.242;11.644;2024-03-29T14:24:42;18.60;97.00
16076;DHT22;8142;48.242;11.644;2024-03-29T14:27:08;18.60;98.10
16076;DHT22;8142;48.242;11.644;2024-03-29T14:29:34;18.60;98.30
16076;DHT22;8142;48.242;11.644;2024-03-29T14:32:01;18.70;96.70
16076;DHT22;8142;48.242;11.644;2024-03-29T14:34:27;18.60;97.10
16076;DHT22;8142;48.242;11.644;2024-03-29T14:36:53;18.60;96.70
16076;DHT22;8142;48.242;11.644;2024-03-29T14:39:19;18.60;97.00
16076;DHT22;8142;48.242;11.644;2024-03-29T14:41:49;18.60;97.20
16076;DHT22;8142;48.242;11.644;2024-03-29T14:44:17;18.60;98.20
16076;DHT22;8142;48.242;11.644;2024-03-29T14:46:44;18.60;97.70
16076;DHT22;8142;48.242;11.644;2024-03-29T14:49:10;18.60;96.60
16076;DHT22;8142;48.242;11.644;2024-03-29T14:51:38;18.60;97.00
16076;DHT22;8142;48.242;11.644;2024-03-29T14:54:04;18.60;96.80
16076;DHT22;8142;48.242;11.644;2024-03-29T14:56:32;18.60;96.90
16076;DHT22;8142;48.242;11.644;2024-03-29T14:59:06;18.50;97.20
16076;DHT22;8142;48.242;11.644;2024-03-29T15:01:32;18.50;96.70
16076;DHT22;8142;48.242;11.644;2024-03-29T15:03:58;18.50;97.00
16076;DHT22;8142;48.242;11.644;2024-03-29T15:06:25;18.60;97.90
16076;DHT22;8142;48.242;11.644;2024-03-29T15:08:55;18.50;98.40
16076;DHT22;8142;48.242;11.644;2024-03-29T15:11:23;18.50;97.70
16076;DHT22;8142;48.242;11.644;2024-03-29T15:13:49;18.50;98.20
16076;DHT22;8142;48.242;11.644;2024-03-29T15:16:16;18.50;98.10
16076;DHT22;8142;48.242;11.644;2024-03-29T15:18:43;18.50;98.40
16076;DHT22;8142;48.242;11.644;2024-03-29T15:21:09;18.50;98.10
16076;DHT22;8142;48.242;11.644;2024-03-29T15:23:35;18.50;97.60
16076;DHT22;8142;48.242;11.644;2024-03-29T15:26:02;18.50;97.10
16076;DHT22;8142;48.242;11.644;2024-03-29T15:28:29;18.60;97.10
16076;DHT22;8142;48.242;11.644;2024-03-29T15:31:15;18.50;96.90
16076;DHT22;8142;48.242;11.644;2024-03-29T15:33:43;18.50;96.80
16076;DHT22;8142;48.242;11.644;2024-03-29T15:36:09;18.50;96.20
16076;DHT22;8142;48.242;11.644;2024-03-29T15:38:36;18.50;96.30
16076;DHT22;8142;48.242;11.644;2024-03-29T15:41:02;18.50;97.40
16076;DHT22;8142;48.242;11.644;2024-03-29T15:43:30;18.40;97.70
16076;DHT22;8142;48.242;11.644;2024-03-29T15:45:57;18.40;97.60